Time,TemperatureF,DewpointF,PressureIn,WindDirection,WindDirectionDegrees,WindSpeedMPH,WindSpeedGustMPH,Humidity,HourlyPrecipIn,Conditions,Clouds,dailyrainin,SoftwareType,DateUTC
2013-05-17 00:05:00,56.8,38.5,29.99,NE,53,5.0,12.0,50,0.00,,,0.00,meteohub,2013-05-17 05:05:00,
2013-05-17 00:10:00,56.5,38.1,29.99,NE,49,5.0,12.0,50,0.00,,,0.00,meteohub,2013-05-17 05:10:00,
2013-05-17 00:15:00,56.5,38.7,29.99,NE,49,4.0,11.0,51,0.00,,,0.00,meteohub,2013-05-17 05:15:00,
2013-05-17 00:20:00,56.3,38.8,29.99,NE,49,4.0,7.0,52,0.00,,,0.00,meteohub,2013-05-17 05:20:00,
2013-05-17 00:25:00,56.3,39.4,29.99,NE,48,4.0,7.0,53,0.00,,,0.00,meteohub,2013-05-17 05:25:00,
2013-05-17 00:30:00,56.1,39.2,29.99,NE,48,6.0,7.0,53,0.00,,,0.00,meteohub,2013-05-17 05:30:00,
2013-05-17 00:36:00,55.9,39.6,29.99,NE,43,6.0,7.0,54,0.00,,,0.00,meteohub,2013-05-17 05:36:00,
2013-05-17 00:41:00,55.8,39.9,29.99,NE,43,4.0,6.0,55,0.00,,,0.00,meteohub,2013-05-17 05:41:00,
2013-05-17 00:46:00,55.6,39.7,29.99,NE,43,3.0,7.0,55,0.00,,,0.00,meteohub,2013-05-17 05:46:00,
2013-05-17 00:51:00,55.4,39.6,29.98,ENE,57,4.0,7.0,55,0.00,,,0.00,meteohub,2013-05-17 05:51:00,
2013-05-17 00:56:00,55.9,38.1,29.98,NE,51,9.0,9.0,51,0.00,,,0.00,meteohub,2013-05-17 05:56:00,
2013-05-17 01:01:00,56.8,36.3,29.98,East,80,10.0,12.0,46,0.00,,,0.00,meteohub,2013-05-17 06:01:00,
2013-05-17 01:06:00,57.6,36.3,29.98,ENE,61,10.0,15.0,45,0.00,,,0.00,meteohub,2013-05-17 06:06:00,
2013-05-17 01:12:00,57.7,36.5,29.98,ENE,73,10.0,15.0,45,0.00,,,0.00,meteohub,2013-05-17 06:12:00,
2013-05-17 01:17:00,57.6,35.8,29.98,NE,55,9.0,15.0,44,0.00,,,0.00,meteohub,2013-05-17 06:17:00,
2013-05-17 01:22:00,57.4,36.1,29.98,ENE,57,8.0,14.0,45,0.00,,,0.00,meteohub,2013-05-17 06:22:00,
2013-05-17 01:27:00,57.0,36.5,29.98,NE,55,8.0,15.0,46,0.00,,,0.00,meteohub,2013-05-17 06:27:00,
2013-05-17 01:32:00,56.7,37.2,29.98,ENE,58,7.0,15.0,48,0.00,,,0.00,meteohub,2013-05-17 06:32:00,
2013-05-17 01:37:00,56.1,37.8,29.99,NE,55,9.0,15.0,50,0.00,,,0.00,meteohub,2013-05-17 06:37:00,
2013-05-17 01:42:00,55.9,38.1,29.99,NE,55,6.0,14.0,51,0.00,,,0.00,meteohub,2013-05-17 06:42:00,
2013-05-17 01:47:00,55.8,37.9,29.99,NE,51,8.0,14.0,51,0.00,,,0.00,meteohub,2013-05-17 06:47:00,
2013-05-17 01:52:00,55.8,37.4,29.99,NE,51,5.0,12.0,50,0.00,,,0.00,meteohub,2013-05-17 06:52:00,
2013-05-17 01:57:00,55.6,37.8,29.99,NE,55,8.0,12.0,51,0.00,,,0.00,meteohub,2013-05-17 06:57:00,
2013-05-17 02:02:00,55.6,37.8,29.99,NE,42,6.0,11.0,51,0.00,,,0.00,meteohub,2013-05-17 07:02:00,
2013-05-17 02:07:00,55.4,37.6,29.99,NE,36,5.0,11.0,51,0.00,,,0.00,meteohub,2013-05-17 07:07:00,
2013-05-17 02:12:00,55.2,37.4,29.99,NE,44,5.0,11.0,51,0.00,,,0.00,meteohub,2013-05-17 07:12:00,
2013-05-17 02:17:00,55.0,37.8,29.99,NE,53,3.0,8.0,52,0.00,,,0.00,meteohub,2013-05-17 07:17:00,
2013-05-17 02:22:00,54.7,37.4,29.99,ENE,57,5.0,8.0,52,0.00,,,0.00,meteohub,2013-05-17 07:22:00,
2013-05-17 02:27:00,54.3,37.0,29.99,NE,54,4.0,8.0,52,0.00,,,0.00,meteohub,2013-05-17 07:27:00,
2013-05-17 02:32:00,54.3,37.0,29.99,NE,46,7.0,9.0,52,0.00,,,0.00,meteohub,2013-05-17 07:32:00,
2013-05-17 02:37:00,54.1,37.4,29.99,NE,51,5.0,9.0,53,0.00,,,0.00,meteohub,2013-05-17 07:37:00,
2013-05-17 02:42:00,54.0,36.7,29.99,ENE,63,4.0,9.0,52,0.00,,,0.00,meteohub,2013-05-17 07:42:00,
2013-05-17 02:47:00,54.0,37.2,29.99,NE,49,4.0,11.0,53,0.00,,,0.00,meteohub,2013-05-17 07:47:00,
2013-05-17 02:52:00,53.8,37.0,30.00,NE,41,5.0,11.0,53,0.00,,,0.00,meteohub,2013-05-17 07:52:00,
2013-05-17 02:57:00,53.6,37.8,29.99,NE,50,5.0,11.0,55,0.00,,,0.00,meteohub,2013-05-17 07:57:00,
2013-05-17 03:02:00,53.4,37.6,30.00,NE,47,6.0,8.0,55,0.00,,,0.00,meteohub,2013-05-17 08:02:00,
2013-05-17 03:07:00,53.6,37.8,30.00,NE,42,7.0,8.0,55,0.00,,,0.00,meteohub,2013-05-17 08:07:00,
2013-05-17 03:12:00,53.6,37.8,30.00,NE,47,6.0,9.0,55,0.00,,,0.00,meteohub,2013-05-17 08:12:00,
2013-05-17 03:17:00,53.4,37.6,30.00,NE,45,4.0,9.0,55,0.00,,,0.00,meteohub,2013-05-17 08:17:00,
2013-05-17 03:22:00,53.4,38.1,30.00,ENE,57,4.0,9.0,56,0.00,,,0.00,meteohub,2013-05-17 08:22:00,
2013-05-17 03:27:00,53.1,38.3,30.00,ENE,57,4.0,8.0,57,0.00,,,0.00,meteohub,2013-05-17 08:27:00,
2013-05-17 03:32:00,52.9,38.5,30.00,NE,42,2.0,8.0,58,0.00,,,0.00,meteohub,2013-05-17 08:32:00,
2013-05-17 03:37:00,52.9,38.5,30.00,NE,42,3.0,7.0,58,0.00,,,0.00,meteohub,2013-05-17 08:37:00,
2013-05-17 03:42:00,52.7,38.8,30.01,NE,42,3.0,5.0,59,0.00,,,0.00,meteohub,2013-05-17 08:42:00,
2013-05-17 03:47:00,52.5,38.7,30.00,NE,42,3.0,5.0,59,0.00,,,0.00,meteohub,2013-05-17 08:47:00,
2013-05-17 03:52:00,52.5,38.7,30.01,NE,42,2.0,5.0,59,0.00,,,0.00,meteohub,2013-05-17 08:52:00,
2013-05-17 03:57:00,52.3,38.8,30.01,NE,42,5.0,5.0,60,0.00,,,0.00,meteohub,2013-05-17 08:57:00,
2013-05-17 04:02:00,52.3,39.4,30.01,NE,42,3.0,5.0,61,0.00,,,0.00,meteohub,2013-05-17 09:02:00,
2013-05-17 04:07:00,52.3,38.8,30.01,NE,42,4.0,5.0,60,0.00,,,0.00,meteohub,2013-05-17 09:07:00,
2013-05-17 04:12:00,52.5,38.1,30.01,NE,42,2.0,7.0,58,0.00,,,0.00,meteohub,2013-05-17 09:12:00,
2013-05-17 04:17:00,52.9,38.5,30.01,NE,42,2.0,7.0,58,0.00,,,0.00,meteohub,2013-05-17 09:17:00,
2013-05-17 04:22:00,52.7,39.2,30.01,NE,42,2.0,7.0,60,0.00,,,0.00,meteohub,2013-05-17 09:22:00,
2013-05-17 04:27:00,52.5,39.4,30.01,NE,42,3.0,5.0,61,0.00,,,0.00,meteohub,2013-05-17 09:27:00,
2013-05-17 04:32:00,52.3,39.4,30.01,NE,42,3.0,5.0,61,0.00,,,0.00,meteohub,2013-05-17 09:32:00,
2013-05-17 04:37:00,52.2,39.6,30.01,NE,42,3.0,5.0,62,0.00,,,0.00,meteohub,2013-05-17 09:37:00,
2013-05-17 04:42:00,52.2,39.6,30.01,NE,42,2.0,5.0,62,0.00,,,0.00,meteohub,2013-05-17 09:42:00,
2013-05-17 04:47:00,52.2,39.9,30.01,NE,48,3.0,5.0,63,0.00,,,0.00,meteohub,2013-05-17 09:47:00,
2013-05-17 04:52:00,52.0,40.1,30.01,NE,49,3.0,6.0,64,0.00,,,0.00,meteohub,2013-05-17 09:52:00,
2013-05-17 04:57:00,52.0,39.7,30.01,NE,35,6.0,7.0,63,0.00,,,0.00,meteohub,2013-05-17 09:57:00,
2013-05-17 05:02:00,52.0,39.7,30.02,NNE,32,4.0,7.0,63,0.00,,,0.00,meteohub,2013-05-17 10:02:00,
2013-05-17 05:07:00,52.2,39.9,30.02,NE,38,4.0,7.0,63,0.00,,,0.00,meteohub,2013-05-17 10:07:00,
2013-05-17 05:12:00,52.0,40.1,30.02,NE,36,6.0,7.0,64,0.00,,,0.00,meteohub,2013-05-17 10:12:00,
2013-05-17 05:17:00,52.0,40.6,30.02,NE,37,4.0,7.0,65,0.00,,,0.00,meteohub,2013-05-17 10:17:00,
2013-05-17 05:22:00,52.0,40.6,30.01,NE,37,5.0,7.0,65,0.00,,,0.00,meteohub,2013-05-17 10:22:00,
2013-05-17 05:27:00,52.0,40.6,30.01,NE,36,4.0,7.0,65,0.00,,,0.00,meteohub,2013-05-17 10:27:00,
2013-05-17 05:32:00,51.8,41.2,30.02,NE,36,4.0,8.0,67,0.00,,,0.00,meteohub,2013-05-17 10:32:00,
2013-05-17 05:37:00,51.8,40.8,30.02,NE,36,4.0,8.0,66,0.00,,,0.00,meteohub,2013-05-17 10:37:00,
2013-05-17 05:42:00,51.8,41.2,30.03,NNE,25,5.0,8.0,67,0.00,,,0.00,meteohub,2013-05-17 10:42:00,
2013-05-17 05:47:00,52.2,40.8,30.03,NNE,17,4.0,7.0,65,0.00,,,0.00,meteohub,2013-05-17 10:47:00,
2013-05-17 05:52:00,52.2,40.8,30.03,NNE,24,5.0,9.0,65,0.00,,,0.00,meteohub,2013-05-17 10:52:00,
2013-05-17 05:57:00,52.2,41.2,30.04,NNE,23,7.0,9.0,66,0.00,,,0.00,meteohub,2013-05-17 10:57:00,
2013-05-17 06:02:00,52.2,41.2,30.04,NNE,28,6.0,9.0,66,0.00,,,0.00,meteohub,2013-05-17 11:02:00,
2013-05-17 06:07:00,52.2,41.2,30.04,NNE,19,5.0,9.0,66,0.00,,,0.00,meteohub,2013-05-17 11:07:00,
2013-05-17 06:12:00,52.0,41.0,30.04,NNE,19,7.0,9.0,66,0.00,,,0.00,meteohub,2013-05-17 11:12:00,
2013-05-17 06:17:00,52.0,41.4,30.05,NNE,14,6.0,10.0,67,0.00,,,0.00,meteohub,2013-05-17 11:17:00,
2013-05-17 06:22:00,52.0,41.4,30.05,NNE,26,7.0,10.0,67,0.00,,,0.00,meteohub,2013-05-17 11:22:00,
2013-05-17 06:28:00,51.8,41.5,30.06,NE,37,7.0,10.0,68,0.00,,,0.00,meteohub,2013-05-17 11:28:00,
2013-05-17 06:33:00,51.6,41.7,30.06,NE,41,7.0,11.0,69,0.00,,,0.00,meteohub,2013-05-17 11:33:00,
2013-05-17 06:38:00,51.6,41.4,30.06,NE,35,4.0,11.0,68,0.00,,,0.00,meteohub,2013-05-17 11:38:00,
2013-05-17 06:43:00,51.6,41.7,30.06,NE,40,8.0,11.0,69,0.00,,,0.00,meteohub,2013-05-17 11:43:00,
2013-05-17 06:48:00,51.4,41.9,30.06,NE,38,6.0,10.0,70,0.00,,,0.00,meteohub,2013-05-17 11:48:00,
2013-05-17 06:54:00,51.4,41.9,30.07,NNE,30,6.0,11.0,70,0.00,,,0.00,meteohub,2013-05-17 11:54:00,
2013-05-17 06:59:00,51.4,41.9,30.07,NNE,27,6.0,11.0,70,0.00,,,0.00,meteohub,2013-05-17 11:59:00,
2013-05-17 07:04:00,51.4,41.9,30.08,NNE,19,7.0,11.0,70,0.00,,,0.00,meteohub,2013-05-17 12:04:00,
2013-05-17 07:09:00,51.4,41.5,30.08,NE,42,9.0,11.0,69,0.00,,,0.00,meteohub,2013-05-17 12:09:00,
2013-05-17 07:14:00,51.4,41.5,30.08,NE,37,8.0,11.0,69,0.00,,,0.00,meteohub,2013-05-17 12:14:00,
2013-05-17 07:19:00,51.4,41.5,30.08,NE,40,11.0,15.0,69,0.00,,,0.00,meteohub,2013-05-17 12:19:00,
2013-05-17 07:25:00,51.4,41.9,30.09,NE,55,6.0,16.0,70,0.00,,,0.00,meteohub,2013-05-17 12:25:00,
2013-05-17 07:30:00,51.4,42.4,30.09,NE,41,6.0,16.0,71,0.00,,,0.00,meteohub,2013-05-17 12:30:00,
2013-05-17 07:35:00,51.4,41.9,30.09,NE,35,5.0,16.0,70,0.00,,,0.00,meteohub,2013-05-17 12:35:00,
2013-05-17 07:40:00,51.6,42.1,30.10,NNE,26,7.0,11.0,70,0.00,,,0.00,meteohub,2013-05-17 12:40:00,
2013-05-17 07:45:00,51.6,42.4,30.10,NE,51,4.0,11.0,71,0.00,,,0.00,meteohub,2013-05-17 12:45:00,
2013-05-17 07:50:00,51.6,42.4,30.10,NE,35,6.0,11.0,71,0.00,,,0.00,meteohub,2013-05-17 12:50:00,
2013-05-17 07:56:00,51.8,43.3,30.11,NE,36,4.0,9.0,73,0.00,,,0.00,meteohub,2013-05-17 12:56:00,
2013-05-17 08:01:00,51.6,43.5,30.12,North,355,10.0,10.0,74,0.00,,,0.00,meteohub,2013-05-17 13:01:00,
2013-05-17 08:06:00,51.4,43.7,30.11,NNE,19,7.0,13.0,75,0.00,,,0.00,meteohub,2013-05-17 13:06:00,
2013-05-17 08:11:00,51.1,44.1,30.11,NNE,23,9.0,13.0,77,0.00,,,0.00,meteohub,2013-05-17 13:11:00,
2013-05-17 08:16:00,50.7,44.1,30.11,NNE,31,8.0,13.0,78,0.00,,,0.00,meteohub,2013-05-17 13:16:00,
2013-05-17 08:21:00,50.5,44.2,30.11,NE,40,12.0,13.0,79,0.00,,,0.00,meteohub,2013-05-17 13:21:00,
2013-05-17 08:27:00,50.4,44.1,30.11,NNE,25,10.0,15.0,79,0.00,,,0.00,meteohub,2013-05-17 13:27:00,
2013-05-17 08:32:00,50.2,44.2,30.12,NE,44,7.0,15.0,80,0.00,,,0.00,meteohub,2013-05-17 13:32:00,
2013-05-17 08:37:00,50.2,44.2,30.13,NNE,33,4.0,15.0,80,0.00,,,0.00,meteohub,2013-05-17 13:37:00,
2013-05-17 08:42:00,50.2,44.2,30.14,NE,41,2.0,13.0,80,0.00,,,0.00,meteohub,2013-05-17 13:42:00,
2013-05-17 08:47:00,50.2,44.6,30.14,NE,41,4.0,11.0,81,0.00,,,0.00,meteohub,2013-05-17 13:47:00,
2013-05-17 08:52:00,50.2,45.0,30.14,NE,40,1.0,9.0,82,0.00,,,0.00,meteohub,2013-05-17 13:52:00,
2013-05-17 08:57:00,50.0,45.0,30.14,NE,40,3.0,5.0,83,0.02,,,0.02,meteohub,2013-05-17 13:57:00,
2013-05-17 09:02:00,49.6,45.0,30.14,NE,47,6.0,7.0,84,0.03,,,0.02,meteohub,2013-05-17 14:02:00,
2013-05-17 09:07:00,49.5,45.1,30.13,NE,54,5.0,8.0,85,0.03,,,0.03,meteohub,2013-05-17 14:07:00,
2013-05-17 09:12:00,49.3,45.3,30.12,ENE,66,7.0,8.0,86,0.05,,,0.05,meteohub,2013-05-17 14:12:00,
2013-05-17 09:17:00,48.9,45.1,30.11,ENE,67,9.0,12.0,87,0.06,,,0.06,meteohub,2013-05-17 14:17:00,
2013-05-17 09:22:00,48.6,45.1,30.10,East,79,8.0,12.0,88,0.10,,,0.10,meteohub,2013-05-17 14:22:00,
2013-05-17 09:27:00,48.6,45.1,30.11,ENE,73,5.0,12.0,88,0.13,,,0.13,meteohub,2013-05-17 14:27:00,
2013-05-17 09:32:00,48.4,45.3,30.11,East,84,7.0,12.0,89,0.14,,,0.14,meteohub,2013-05-17 14:32:00,
2013-05-17 09:37:00,48.6,45.5,30.10,East,80,10.0,12.0,89,0.16,,,0.16,meteohub,2013-05-17 14:37:00,
2013-05-17 09:42:00,48.9,45.5,30.10,ENE,67,9.0,13.0,88,0.18,,,0.18,meteohub,2013-05-17 14:42:00,
2013-05-17 09:47:00,49.1,45.7,30.09,ENE,77,9.0,13.0,88,0.20,,,0.20,meteohub,2013-05-17 14:47:00,
2013-05-17 09:52:00,49.3,45.9,30.09,ENE,77,8.0,14.0,88,0.21,,,0.22,meteohub,2013-05-17 14:52:00,
2013-05-17 09:57:00,49.6,46.2,30.09,ENE,65,11.0,14.0,88,0.20,,,0.22,meteohub,2013-05-17 14:57:00,
2013-05-17 10:02:00,50.0,46.2,30.09,East,84,8.0,13.0,87,0.19,,,0.22,meteohub,2013-05-17 15:02:00,
2013-05-17 10:07:00,50.4,46.6,30.09,ENE,78,9.0,13.0,87,0.19,,,0.23,meteohub,2013-05-17 15:07:00,
2013-05-17 10:12:00,50.5,46.8,30.09,East,84,2.0,13.0,87,0.19,,,0.24,meteohub,2013-05-17 15:12:00,
2013-05-17 10:17:00,50.7,46.9,30.09,ESE,106,5.0,13.0,87,0.16,,,0.24,meteohub,2013-05-17 15:17:00,
2013-05-17 10:22:00,51.1,47.1,30.09,East,99,3.0,9.0,86,0.13,,,0.24,meteohub,2013-05-17 15:22:00,
2013-05-17 10:27:00,51.3,47.3,30.09,East,99,3.0,9.0,86,0.10,,,0.24,meteohub,2013-05-17 15:27:00,
2013-05-17 10:32:00,51.3,47.3,30.09,East,99,5.0,9.0,86,0.08,,,0.24,meteohub,2013-05-17 15:32:00,
2013-05-17 10:37:00,51.3,47.3,30.09,East,96,7.0,8.0,86,0.08,,,0.25,meteohub,2013-05-17 15:37:00,
2013-05-17 10:42:00,51.4,47.1,30.10,East,80,6.0,8.0,85,0.06,,,0.25,meteohub,2013-05-17 15:42:00,
2013-05-17 10:47:00,51.4,47.5,30.10,East,82,1.0,8.0,86,0.04,,,0.25,meteohub,2013-05-17 15:47:00,
2013-05-17 10:52:00,51.6,47.5,30.10,NE,38,5.0,8.0,86,0.04,,,0.26,meteohub,2013-05-17 15:52:00,
2013-05-17 10:57:00,51.4,47.5,30.10,NE,49,7.0,7.0,86,0.04,,,0.26,meteohub,2013-05-17 15:57:00,
2013-05-17 11:02:00,51.4,47.7,30.11,NE,49,3.0,7.0,87,0.03,,,0.26,meteohub,2013-05-17 16:02:00,
2013-05-17 11:07:00,51.4,47.7,30.11,NE,49,3.0,7.0,87,0.04,,,0.27,meteohub,2013-05-17 16:07:00,
2013-05-17 11:12:00,51.6,48.2,30.11,ENE,78,4.0,7.0,88,0.03,,,0.27,meteohub,2013-05-17 16:12:00,
2013-05-17 11:17:00,51.6,48.2,30.11,ENE,74,7.0,7.0,88,0.04,,,0.28,meteohub,2013-05-17 16:17:00,
2013-05-17 11:22:00,51.4,48.0,30.11,NE,53,6.0,7.0,88,0.04,,,0.28,meteohub,2013-05-17 16:22:00,
2013-05-17 11:27:00,51.4,48.4,30.12,ENE,64,3.0,8.0,89,0.05,,,0.29,meteohub,2013-05-17 16:27:00,
2013-05-17 11:32:00,51.4,48.4,30.11,ENE,65,3.0,8.0,89,0.05,,,0.29,meteohub,2013-05-17 16:32:00,
2013-05-17 11:37:00,51.4,48.4,30.11,NE,55,4.0,8.0,89,0.05,,,0.30,meteohub,2013-05-17 16:37:00,
2013-05-17 11:42:00,51.4,48.4,30.11,NE,55,6.0,10.0,89,0.05,,,0.30,meteohub,2013-05-17 16:42:00,
2013-05-17 11:47:00,51.4,48.6,30.10,NE,49,8.0,10.0,90,0.06,,,0.31,meteohub,2013-05-17 16:47:00,
2013-05-17 11:52:00,51.4,48.6,30.11,ENE,70,5.0,10.0,90,0.05,,,0.31,meteohub,2013-05-17 16:52:00,
2013-05-17 11:57:00,51.6,48.7,30.10,ENE,77,8.0,10.0,90,0.06,,,0.32,meteohub,2013-05-17 16:57:00,
2013-05-17 12:02:00,51.4,48.9,30.10,ENE,76,9.0,11.0,91,0.06,,,0.32,meteohub,2013-05-17 17:02:00,
2013-05-17 12:07:00,51.4,48.6,30.09,ENE,66,9.0,12.0,90,0.05,,,0.32,meteohub,2013-05-17 17:07:00,
2013-05-17 12:12:00,51.3,48.4,30.10,ENE,57,9.0,12.0,90,0.04,,,0.32,meteohub,2013-05-17 17:12:00,
2013-05-17 12:17:00,51.3,48.4,30.09,ENE,60,7.0,12.0,90,0.04,,,0.32,meteohub,2013-05-17 17:17:00,
2013-05-17 12:22:00,51.3,48.4,30.09,ENE,60,8.0,12.0,90,0.04,,,0.32,meteohub,2013-05-17 17:22:00,
2013-05-17 12:27:00,51.1,48.2,30.09,ENE,71,9.0,14.0,90,0.04,,,0.33,meteohub,2013-05-17 17:27:00,
2013-05-17 12:32:00,51.1,48.2,30.09,ENE,59,9.0,15.0,90,0.04,,,0.33,meteohub,2013-05-17 17:32:00,
2013-05-17 12:37:00,51.4,48.9,30.09,NE,52,9.0,15.0,91,0.03,,,0.33,meteohub,2013-05-17 17:37:00,
2013-05-17 12:42:00,51.3,48.7,30.09,ENE,63,13.0,14.0,91,0.03,,,0.33,meteohub,2013-05-17 17:42:00,
2013-05-17 12:47:00,51.3,48.7,30.08,ENE,58,11.0,14.0,91,0.03,,,0.34,meteohub,2013-05-17 17:47:00,
2013-05-17 12:52:00,51.3,48.7,30.09,ENE,70,5.0,14.0,91,0.02,,,0.34,meteohub,2013-05-17 17:52:00,
2013-05-17 12:57:00,51.3,48.7,30.09,East,93,6.0,14.0,91,0.02,,,0.34,meteohub,2013-05-17 17:57:00,
2013-05-17 13:02:00,51.3,48.7,30.10,East,87,5.0,13.0,91,0.02,,,0.34,meteohub,2013-05-17 18:02:00,
2013-05-17 13:07:00,51.3,48.7,30.09,East,91,7.0,9.0,91,0.02,,,0.34,meteohub,2013-05-17 18:07:00,
2013-05-17 13:12:00,51.4,48.9,30.09,East,96,9.0,10.0,91,0.02,,,0.34,meteohub,2013-05-17 18:12:00,
2013-05-17 13:17:00,51.6,49.1,30.09,East,87,8.0,11.0,91,0.03,,,0.35,meteohub,2013-05-17 18:17:00,
2013-05-17 13:22:00,51.6,49.5,30.09,East,90,8.0,11.0,92,0.02,,,0.35,meteohub,2013-05-17 18:22:00,
2013-05-17 13:27:00,51.4,49.3,30.09,ENE,78,8.0,11.0,92,0.02,,,0.35,meteohub,2013-05-17 18:27:00,
2013-05-17 13:32:00,51.3,48.7,30.09,ENE,66,10.0,12.0,91,0.03,,,0.36,meteohub,2013-05-17 18:32:00,
2013-05-17 13:37:00,51.3,49.1,30.09,East,88,8.0,12.0,92,0.03,,,0.36,meteohub,2013-05-17 18:37:00,
2013-05-17 13:42:00,51.1,48.9,30.09,East,90,7.0,12.0,92,0.02,,,0.36,meteohub,2013-05-17 18:42:00,
2013-05-17 13:47:00,51.1,48.9,30.09,East,91,10.0,13.0,92,0.02,,,0.36,meteohub,2013-05-17 18:47:00,
2013-05-17 13:52:00,51.3,49.1,30.09,East,98,7.0,13.0,92,0.02,,,0.36,meteohub,2013-05-17 18:52:00,
2013-05-17 13:57:00,51.3,49.1,30.09,East,88,6.0,12.0,92,0.02,,,0.36,meteohub,2013-05-17 18:57:00,
2013-05-17 14:02:00,51.3,49.1,30.09,East,98,7.0,12.0,92,0.02,,,0.36,meteohub,2013-05-17 19:02:00,
2013-05-17 14:07:00,51.4,48.9,30.09,East,85,6.0,11.0,91,0.02,,,0.36,meteohub,2013-05-17 19:07:00,
2013-05-17 14:12:00,51.4,48.9,30.10,ENE,65,8.0,11.0,91,0.01,,,0.36,meteohub,2013-05-17 19:12:00,
2013-05-17 14:17:00,51.4,48.9,30.09,ENE,61,8.0,14.0,91,0.01,,,0.36,meteohub,2013-05-17 19:17:00,
2013-05-17 14:22:00,51.4,48.9,30.09,ENE,74,7.0,14.0,91,0.01,,,0.36,meteohub,2013-05-17 19:22:00,
2013-05-17 14:27:00,51.4,48.9,30.09,ENE,60,7.0,11.0,91,0.00,,,0.36,meteohub,2013-05-17 19:27:00,
2013-05-17 14:32:00,51.4,48.9,30.09,ESE,103,9.0,11.0,91,0.00,,,0.36,meteohub,2013-05-17 19:32:00,
2013-05-17 14:37:00,51.4,48.9,30.09,East,101,9.0,10.0,91,0.00,,,0.36,meteohub,2013-05-17 19:37:00,
2013-05-17 14:42:00,51.4,48.9,30.09,East,96,6.0,10.0,91,0.00,,,0.36,meteohub,2013-05-17 19:42:00,
2013-05-17 14:47:00,51.4,48.9,30.09,East,84,3.0,10.0,91,0.00,,,0.36,meteohub,2013-05-17 19:47:00,
2013-05-17 14:52:00,51.6,49.1,30.09,East,96,9.0,10.0,91,0.00,,,0.36,meteohub,2013-05-17 19:52:00,
2013-05-17 14:57:00,51.8,49.3,30.09,East,94,7.0,11.0,91,0.00,,,0.36,meteohub,2013-05-17 19:57:00,
2013-05-17 15:02:00,52.0,49.5,30.09,East,84,8.0,11.0,91,0.00,,,0.36,meteohub,2013-05-17 20:02:00,
2013-05-17 15:07:00,52.0,49.5,30.08,East,88,11.0,14.0,91,0.00,,,0.36,meteohub,2013-05-17 20:07:00,
2013-05-17 15:12:00,52.0,49.5,30.08,East,86,9.0,15.0,91,0.00,,,0.36,meteohub,2013-05-17 20:12:00,
2013-05-17 15:17:00,52.0,49.5,30.08,East,80,8.0,15.0,91,0.00,,,0.36,meteohub,2013-05-17 20:17:00,
2013-05-17 15:22:00,52.0,49.5,30.08,East,80,5.0,14.0,91,0.01,,,0.37,meteohub,2013-05-17 20:22:00,
2013-05-17 15:27:00,52.0,49.5,30.08,ENE,76,9.0,13.0,91,0.01,,,0.37,meteohub,2013-05-17 20:27:00,
2013-05-17 15:32:00,52.0,49.5,30.09,East,84,6.0,11.0,91,0.01,,,0.37,meteohub,2013-05-17 20:32:00,
2013-05-17 15:37:00,52.3,49.8,30.08,East,80,7.0,10.0,91,0.01,,,0.37,meteohub,2013-05-17 20:37:00,
2013-05-17 15:42:00,52.5,50.0,30.08,ENE,65,9.0,10.0,91,0.01,,,0.37,meteohub,2013-05-17 20:42:00,
2013-05-17 15:47:00,52.9,50.0,30.08,ENE,69,5.0,12.0,90,0.01,,,0.37,meteohub,2013-05-17 20:47:00,
2013-05-17 15:52:00,52.9,49.6,30.08,East,88,3.0,12.0,89,0.01,,,0.37,meteohub,2013-05-17 20:52:00,
2013-05-17 15:57:00,52.9,49.6,30.08,East,83,7.0,10.0,89,0.01,,,0.37,meteohub,2013-05-17 20:57:00,
2013-05-17 16:02:00,52.9,49.6,30.08,East,89,3.0,10.0,89,0.01,,,0.37,meteohub,2013-05-17 21:02:00,
2013-05-17 16:07:00,52.9,49.5,30.07,ENE,62,9.0,9.0,88,0.01,,,0.37,meteohub,2013-05-17 21:07:00,
2013-05-17 16:12:00,53.1,49.6,30.07,East,86,8.0,11.0,88,0.01,,,0.37,meteohub,2013-05-17 21:12:00,
2013-05-17 16:17:00,53.1,49.6,30.07,East,88,10.0,11.0,88,0.01,,,0.37,meteohub,2013-05-17 21:17:00,
2013-05-17 16:22:00,53.2,49.8,30.07,ENE,69,4.0,11.0,88,0.00,,,0.37,meteohub,2013-05-17 21:22:00,
2013-05-17 16:27:00,53.2,49.8,30.07,East,96,7.0,11.0,88,0.00,,,0.37,meteohub,2013-05-17 21:27:00,
2013-05-17 16:32:00,53.2,49.8,30.07,ENE,77,9.0,11.0,88,0.00,,,0.37,meteohub,2013-05-17 21:32:00,
2013-05-17 16:37:00,53.2,49.8,30.07,East,90,5.0,11.0,88,0.00,,,0.37,meteohub,2013-05-17 21:37:00,
2013-05-17 16:42:00,53.2,49.8,30.06,ENE,67,3.0,10.0,88,0.00,,,0.37,meteohub,2013-05-17 21:42:00,
2013-05-17 16:47:00,53.2,49.8,30.06,East,92,7.0,10.0,88,0.00,,,0.37,meteohub,2013-05-17 21:47:00,
2013-05-17 16:52:00,53.2,49.5,30.07,East,88,8.0,9.0,87,0.00,,,0.37,meteohub,2013-05-17 21:52:00,
2013-05-17 16:57:00,53.4,49.3,30.07,East,81,7.0,9.0,86,0.00,,,0.37,meteohub,2013-05-17 21:57:00,
2013-05-17 17:02:00,53.6,49.5,30.07,ENE,75,4.0,9.0,86,0.00,,,0.37,meteohub,2013-05-17 22:02:00,
2013-05-17 17:07:00,53.8,49.6,30.07,ENE,74,3.0,8.0,86,0.00,,,0.37,meteohub,2013-05-17 22:07:00,
2013-05-17 17:12:00,53.8,49.5,30.07,East,93,6.0,8.0,85,0.00,,,0.37,meteohub,2013-05-17 22:12:00,
2013-05-17 17:17:00,53.8,49.1,30.07,ENE,74,5.0,8.0,84,0.00,,,0.37,meteohub,2013-05-17 22:17:00,
2013-05-17 17:22:00,54.0,49.3,30.07,East,90,3.0,9.0,84,0.00,,,0.37,meteohub,2013-05-17 22:22:00,
2013-05-17 17:27:00,54.0,48.9,30.07,ENE,76,5.0,9.0,83,0.00,,,0.37,meteohub,2013-05-17 22:27:00,
2013-05-17 17:32:00,54.0,49.3,30.07,East,84,2.0,9.0,84,0.00,,,0.37,meteohub,2013-05-17 22:32:00,
2013-05-17 17:37:00,54.0,49.3,30.07,East,87,5.0,8.0,84,0.00,,,0.37,meteohub,2013-05-17 22:37:00,
2013-05-17 17:42:00,53.8,49.1,30.07,East,89,7.0,8.0,84,0.00,,,0.37,meteohub,2013-05-17 22:42:00,
2013-05-17 17:47:00,54.0,49.3,30.07,East,90,5.0,8.0,84,0.00,,,0.37,meteohub,2013-05-17 22:47:00,
2013-05-17 17:52:00,54.0,49.3,30.07,East,90,2.0,8.0,84,0.00,,,0.37,meteohub,2013-05-17 22:52:00,
2013-05-17 17:57:00,53.8,49.1,30.07,East,90,5.0,8.0,84,0.00,,,0.37,meteohub,2013-05-17 22:57:00,
2013-05-17 18:02:00,53.8,49.1,30.07,East,90,2.0,7.0,84,0.00,,,0.37,meteohub,2013-05-17 23:02:00,
2013-05-17 18:07:00,54.0,49.6,30.07,East,90,3.0,7.0,85,0.00,,,0.37,meteohub,2013-05-17 23:07:00,
2013-05-17 18:12:00,54.0,49.6,30.07,East,96,3.0,7.0,85,0.00,,,0.37,meteohub,2013-05-17 23:12:00,
2013-05-17 18:17:00,54.0,49.6,30.07,East,80,6.0,8.0,85,0.00,,,0.37,meteohub,2013-05-17 23:17:00,
2013-05-17 18:22:00,54.0,49.6,30.07,East,80,3.0,8.0,85,0.00,,,0.37,meteohub,2013-05-17 23:22:00,
2013-05-17 18:27:00,54.0,49.6,30.07,East,80,3.0,7.0,85,0.00,,,0.37,meteohub,2013-05-17 23:27:00,
2013-05-17 18:32:00,54.0,49.6,30.08,East,80,3.0,7.0,85,0.00,,,0.37,meteohub,2013-05-17 23:32:00,
2013-05-17 18:37:00,54.0,49.6,30.08,East,80,5.0,7.0,85,0.00,,,0.37,meteohub,2013-05-17 23:37:00,
2013-05-17 18:42:00,54.0,49.6,30.08,ENE,63,5.0,7.0,85,0.00,,,0.37,meteohub,2013-05-17 23:42:00,
2013-05-17 18:47:00,54.1,49.8,30.08,ENE,70,4.0,7.0,85,0.00,,,0.37,meteohub,2013-05-17 23:47:00,
2013-05-17 18:52:00,54.1,49.8,30.07,NNE,30,4.0,8.0,85,0.00,,,0.37,meteohub,2013-05-17 23:52:00,
2013-05-17 18:57:00,54.0,49.8,30.07,NNE,22,5.0,8.0,86,0.00,,,0.37,meteohub,2013-05-17 23:57:00,
2013-05-17 19:02:00,54.0,49.8,30.07,NE,36,7.0,7.0,86,0.00,,,0.37,meteohub,2013-05-18 00:02:00,
2013-05-17 19:07:00,54.0,49.8,30.08,NE,37,6.0,8.0,86,0.00,,,0.37,meteohub,2013-05-18 00:07:00,
2013-05-17 19:12:00,54.0,49.8,30.08,NE,40,4.0,8.0,86,0.00,,,0.37,meteohub,2013-05-18 00:12:00,
2013-05-17 19:17:00,54.0,49.8,30.08,NNE,29,4.0,8.0,86,0.00,,,0.37,meteohub,2013-05-18 00:17:00,
2013-05-17 19:22:00,54.0,49.8,30.08,NE,34,6.0,8.0,86,0.00,,,0.37,meteohub,2013-05-18 00:22:00,
2013-05-17 19:28:00,54.0,49.8,30.08,NE,40,5.0,8.0,86,0.00,,,0.37,meteohub,2013-05-18 00:28:00,
2013-05-17 19:33:00,54.0,49.6,30.08,NE,42,4.0,8.0,85,0.00,,,0.37,meteohub,2013-05-18 00:33:00,
2013-05-17 19:38:00,54.0,49.8,30.08,NE,47,4.0,9.0,86,0.00,,,0.37,meteohub,2013-05-18 00:38:00,
2013-05-17 19:43:00,54.0,49.8,30.08,NE,53,2.0,9.0,86,0.00,,,0.37,meteohub,2013-05-18 00:43:00,
2013-05-17 19:48:00,54.0,50.2,30.08,NE,53,3.0,7.0,87,0.00,,,0.37,meteohub,2013-05-18 00:48:00,
2013-05-17 19:54:00,53.8,50.0,30.08,NE,53,3.0,7.0,87,0.00,,,0.37,meteohub,2013-05-18 00:54:00,
2013-05-17 19:59:00,53.8,50.0,30.08,NE,51,3.0,7.0,87,0.00,,,0.37,meteohub,2013-05-18 00:59:00,
2013-05-17 20:04:00,53.6,49.8,30.08,NE,50,3.0,7.0,87,0.00,,,0.37,meteohub,2013-05-18 01:04:00,
2013-05-17 20:09:00,53.4,50.0,30.09,NE,50,3.0,6.0,88,0.00,,,0.37,meteohub,2013-05-18 01:09:00,
2013-05-17 20:14:00,53.4,50.0,30.09,NE,50,3.0,6.0,88,0.00,,,0.37,meteohub,2013-05-18 01:14:00,
2013-05-17 20:19:00,53.4,50.0,30.09,NE,50,1.0,6.0,88,0.00,,,0.37,meteohub,2013-05-18 01:19:00,
2013-05-17 20:25:00,53.2,50.0,30.09,NE,50,1.0,6.0,89,0.00,,,0.37,meteohub,2013-05-18 01:25:00,
2013-05-17 20:30:00,53.2,50.0,30.09,NE,50,2.0,5.0,89,0.00,,,0.37,meteohub,2013-05-18 01:30:00,
2013-05-17 20:35:00,53.1,49.8,30.09,NE,50,1.0,3.0,89,0.00,,,0.37,meteohub,2013-05-18 01:35:00,
2013-05-17 20:40:00,53.1,50.2,30.09,NE,50,2.0,4.0,90,0.00,,,0.37,meteohub,2013-05-18 01:40:00,
2013-05-17 20:45:00,52.9,50.0,30.09,NE,50,4.0,4.0,90,0.00,,,0.37,meteohub,2013-05-18 01:45:00,
2013-05-17 20:51:00,52.9,50.0,30.09,NE,50,2.0,4.0,90,0.00,,,0.37,meteohub,2013-05-18 01:51:00,
2013-05-17 20:56:00,52.9,50.0,30.09,NE,50,4.0,4.0,90,0.00,,,0.37,meteohub,2013-05-18 01:56:00,
2013-05-17 21:01:00,52.7,49.8,30.09,NE,50,1.0,4.0,90,0.00,,,0.37,meteohub,2013-05-18 02:01:00,
2013-05-17 21:06:00,52.5,50.0,30.09,NE,50,2.0,4.0,91,0.00,,,0.37,meteohub,2013-05-18 02:06:00,
2013-05-17 21:11:00,52.5,50.0,30.09,NE,50,5.0,5.0,91,0.00,,,0.37,meteohub,2013-05-18 02:11:00,
2013-05-17 21:16:00,52.5,49.6,30.09,NE,50,2.0,6.0,90,0.00,,,0.37,meteohub,2013-05-18 02:16:00,
2013-05-17 21:22:00,52.3,49.5,30.09,NE,50,1.0,6.0,90,0.00,,,0.37,meteohub,2013-05-18 02:22:00,
2013-05-17 21:27:00,52.3,49.5,30.09,NE,50,2.0,6.0,90,0.00,,,0.37,meteohub,2013-05-18 02:27:00,
2013-05-17 21:32:00,52.3,49.5,30.09,NE,37,4.0,6.0,90,0.00,,,0.37,meteohub,2013-05-18 02:32:00,
2013-05-17 21:37:00,52.3,49.5,30.09,NE,37,5.0,7.0,90,0.00,,,0.37,meteohub,2013-05-18 02:37:00,
2013-05-17 21:42:00,52.3,49.3,30.09,NE,37,4.0,7.0,89,0.00,,,0.37,meteohub,2013-05-18 02:42:00,
2013-05-17 21:47:00,52.3,49.3,30.09,NE,37,4.0,7.0,89,0.00,,,0.37,meteohub,2013-05-18 02:47:00,
2013-05-17 21:52:00,52.3,49.3,30.09,NE,37,5.0,6.0,89,0.00,,,0.37,meteohub,2013-05-18 02:52:00,
2013-05-17 21:57:00,52.3,49.3,30.09,NE,37,2.0,6.0,89,0.00,,,0.37,meteohub,2013-05-18 02:57:00,
2013-05-17 22:02:00,52.3,49.3,30.09,NE,37,3.0,6.0,89,0.00,,,0.37,meteohub,2013-05-18 03:02:00,
2013-05-17 22:07:00,52.3,49.3,30.09,NE,38,2.0,5.0,89,0.00,,,0.37,meteohub,2013-05-18 03:07:00,
2013-05-17 22:12:00,52.3,48.9,30.09,NE,52,5.0,5.0,88,0.00,,,0.37,meteohub,2013-05-18 03:12:00,
2013-05-17 22:17:00,52.5,48.7,30.09,NE,53,3.0,5.0,87,0.00,,,0.37,meteohub,2013-05-18 03:17:00,
2013-05-17 22:22:00,52.5,48.7,30.09,NE,53,4.0,6.0,87,0.00,,,0.37,meteohub,2013-05-18 03:22:00,
2013-05-17 22:27:00,52.5,48.7,30.08,NE,53,3.0,6.0,87,0.00,,,0.37,meteohub,2013-05-18 03:27:00,
2013-05-17 22:32:00,52.5,48.7,30.08,NE,53,3.0,6.0,87,0.00,,,0.37,meteohub,2013-05-18 03:32:00,
2013-05-17 22:37:00,52.5,49.1,30.09,NE,53,2.0,5.0,88,0.00,,,0.37,meteohub,2013-05-18 03:37:00,
2013-05-17 22:42:00,52.3,48.9,30.08,NE,53,2.0,5.0,88,0.00,,,0.37,meteohub,2013-05-18 03:42:00,
2013-05-17 22:47:00,52.3,48.9,30.08,NE,53,4.0,5.0,88,0.00,,,0.37,meteohub,2013-05-18 03:47:00,
2013-05-17 22:52:00,52.3,48.9,30.08,NE,54,4.0,6.0,88,0.00,,,0.37,meteohub,2013-05-18 03:52:00,
2013-05-17 22:57:00,52.2,48.7,30.08,NE,54,4.0,6.0,88,0.00,,,0.37,meteohub,2013-05-18 03:57:00,
2013-05-17 23:01:00,52.2,48.7,30.07,NE,54,4.0,6.0,88,0.00,,,0.37,meteohub,2013-05-18 04:01:00,
2013-05-17 23:02:00,52.2,48.7,30.07,NE,54,4.0,6.0,88,0.00,,,0.37,meteohub,2013-05-18 04:02:00,
2013-05-17 23:03:00,52.2,48.7,30.07,NE,54,3.0,6.0,88,0.00,,,0.37,meteohub,2013-05-18 04:03:00,
2013-05-17 23:05:00,52.2,48.7,30.07,NE,54,1.0,6.0,88,0.00,,,0.37,meteohub,2013-05-18 04:05:00,
2013-05-17 23:10:00,52.0,48.6,30.07,NE,54,2.0,6.0,88,0.00,,,0.37,meteohub,2013-05-18 04:10:00,
2013-05-17 23:15:00,52.0,48.9,30.07,NE,54,3.0,5.0,89,0.00,,,0.37,meteohub,2013-05-18 04:15:00,
2013-05-17 23:21:00,52.0,48.9,30.07,NE,54,4.0,5.0,89,0.00,,,0.37,meteohub,2013-05-18 04:21:00,
2013-05-17 23:26:00,52.0,48.9,30.07,NE,54,2.0,5.0,89,0.00,,,0.37,meteohub,2013-05-18 04:26:00,
2013-05-17 23:31:00,52.0,48.9,30.07,NE,54,3.0,5.0,89,0.00,,,0.37,meteohub,2013-05-18 04:31:00,
2013-05-17 23:36:00,52.2,48.7,30.07,NE,54,2.0,5.0,88,0.00,,,0.37,meteohub,2013-05-18 04:36:00,
2013-05-17 23:41:00,52.3,48.6,30.07,NE,54,0.0,5.0,87,0.00,,,0.37,meteohub,2013-05-18 04:41:00,
2013-05-17 23:47:00,52.5,48.7,30.07,NE,54,1.0,5.0,87,0.00,,,0.37,meteohub,2013-05-18 04:47:00,
2013-05-17 23:52:00,52.5,48.7,30.06,NE,54,2.0,4.0,87,0.00,,,0.37,meteohub,2013-05-18 04:52:00,
2013-05-17 23:57:00,52.5,48.7,30.07,NE,54,2.0,4.0,87,0.00,,,0.37,meteohub,2013-05-18 04:57:00,